createdAt,value
2023-09-14T00:01:01.630Z,20.12
2023-09-14T00:03:30.821Z,18.18
2023-09-14T00:05:59.592Z,19.64
2023-09-14T00:08:31.394Z,19.12
2023-09-14T00:11:01.447Z,19.77
2023-09-14T00:13:29.680Z,19.81
2023-09-14T00:15:58.624Z,19.46
2023-09-14T00:18:28.524Z,19.60
2023-09-14T00:20:58.706Z,19.41
2023-09-14T00:23:27.209Z,19.48
2023-09-14T00:25:57.345Z,18.78
2023-09-14T00:28:25.758Z,19.25
2023-09-14T00:30:55.034Z,18.95
2023-09-14T00:33:24.337Z,19.24
2023-09-14T00:35:53.200Z,19.18
2023-09-14T00:38:21.582Z,19.02
2023-09-14T00:40:51.969Z,18.59
2023-09-14T00:43:21.946Z,18.35
2023-09-14T00:45:51.235Z,18.86
2023-09-14T00:48:19.598Z,19.20
2023-09-14T00:50:48.883Z,18.83
2023-09-14T00:53:18.977Z,18.38
2023-09-14T00:55:48.367Z,18.61
2023-09-14T00:58:17.763Z,18.86
2023-09-14T01:00:48.322Z,18.46
2023-09-14T01:03:17.088Z,18.86
2023-09-14T01:05:46.903Z,18.61
2023-09-14T01:08:15.377Z,18.91
2023-09-14T01:10:43.989Z,18.85
2023-09-14T01:13:16.483Z,18.26
2023-09-14T01:15:50.578Z,17.74
2023-09-14T01:18:22.919Z,17.75
2023-09-14T01:21:25.904Z,16.85
2023-09-14T01:23:59.573Z,17.73
2023-09-14T01:26:30.327Z,18.27
2023-09-14T01:29:00.400Z,18.51
2023-09-14T01:31:30.157Z,18.67
2023-09-14T01:33:58.880Z,18.92
2023-09-14T01:36:34.854Z,18.16
2023-09-14T01:39:05.392Z,18.41
2023-09-14T01:41:36.129Z,18.03
2023-09-14T01:44:05.264Z,18.42
2023-09-14T01:46:34.809Z,18.55
2023-09-14T01:49:03.285Z,18.95
2023-09-14T01:51:32.108Z,18.82
2023-09-14T01:54:00.418Z,18.78
2023-09-14T01:56:29.016Z,18.83
2023-09-14T01:58:58.571Z,18.30
2023-09-14T02:01:27.267Z,18.71
2023-09-14T02:03:56.316Z,18.75
2023-09-14T02:06:25.038Z,18.72
2023-09-14T02:08:53.346Z,18.79
2023-09-14T02:11:21.877Z,18.78
2023-09-14T02:13:50.360Z,18.76
2023-09-14T02:16:20.463Z,18.31
2023-09-14T02:18:48.913Z,18.75
2023-09-14T02:21:18.382Z,18.98
2023-09-14T02:23:46.536Z,18.84
2023-09-14T02:26:15.138Z,18.76
2023-09-14T02:28:43.459Z,18.77
2023-09-14T02:31:13.105Z,18.88
2023-09-14T02:33:42.951Z,18.21
2023-09-14T02:36:11.698Z,18.98
2023-09-14T02:38:39.980Z,18.79
2023-09-14T02:41:08.548Z,18.87
2023-09-14T02:43:36.794Z,18.69
2023-09-14T02:46:05.385Z,18.63
2023-09-14T02:48:33.950Z,18.86
2023-09-14T02:51:04.318Z,18.36
2023-09-14T02:53:32.625Z,18.52
2023-09-14T02:56:01.124Z,18.60
2023-09-14T02:58:29.393Z,18.77
2023-09-14T03:00:58.100Z,18.62
2023-09-14T03:03:26.469Z,18.64
2023-09-14T03:05:55.795Z,18.65
2023-09-14T03:08:25.346Z,18.04
2023-09-14T03:10:54.227Z,18.68
2023-09-14T03:13:22.517Z,18.63
2023-09-14T03:15:55.354Z,18.15
2023-09-14T03:18:23.794Z,18.72
2023-09-14T03:20:53.827Z,18.08
2023-09-14T03:23:22.463Z,18.48
2023-09-14T03:25:52.546Z,18.19
2023-09-14T03:28:20.934Z,18.82
2023-09-14T03:30:49.635Z,18.59
2023-09-14T03:33:17.963Z,18.71
2023-09-14T03:35:46.850Z,18.56
2023-09-14T03:38:17.068Z,18.73
2023-09-14T03:40:45.574Z,18.73
2023-09-14T03:43:15.330Z,18.46
2023-09-14T03:45:44.116Z,18.47
2023-09-14T03:48:12.482Z,18.73
2023-09-14T03:50:41.067Z,18.83
2023-09-14T03:53:11.336Z,18.80
2023-09-14T03:55:40.047Z,18.75
2023-09-14T03:58:08.668Z,18.77
2023-09-14T04:00:38.706Z,18.43
2023-09-14T04:03:07.179Z,18.68
2023-09-14T04:05:35.977Z,18.49
2023-09-14T04:08:04.705Z,18.45
2023-09-14T04:10:33.283Z,18.70
2023-09-14T04:13:26.205Z,17.20
2023-09-14T04:15:56.627Z,18.19
2023-09-14T04:18:25.409Z,18.40
2023-09-14T04:20:54.405Z,18.56
2023-09-14T04:23:22.867Z,18.69
2023-09-14T04:25:52.422Z,18.46
2023-09-14T04:28:22.396Z,18.19
2023-09-14T04:30:52.240Z,17.94
2023-09-14T04:33:22.326Z,18.07
2023-09-14T04:35:50.888Z,18.56
2023-09-14T04:38:19.208Z,18.33
2023-09-14T04:40:49.281Z,18.35
2023-09-14T04:43:17.708Z,18.24
2023-09-14T04:45:47.728Z,17.92
2023-09-14T04:48:17.299Z,18.09
2023-09-14T04:50:47.734Z,17.79
2023-09-14T04:53:16.071Z,17.94
2023-09-14T04:55:46.853Z,17.56
2023-09-14T04:58:15.230Z,17.95
2023-09-14T05:00:44.150Z,17.88
2023-09-14T05:03:12.537Z,17.97
2023-09-14T05:05:41.170Z,17.98
2023-09-14T05:08:10.973Z,17.33
2023-09-14T05:10:39.665Z,17.95
2023-09-14T05:13:08.364Z,17.85
2023-09-14T05:15:37.796Z,18.18
2023-09-14T05:18:06.834Z,18.23
2023-09-14T05:20:35.425Z,18.12
2023-09-14T05:23:04.201Z,18.06
2023-09-14T05:25:34.406Z,17.47
2023-09-14T05:28:02.634Z,17.69
2023-09-14T05:30:31.272Z,17.59
2023-09-14T05:32:59.493Z,17.67
2023-09-14T05:35:28.566Z,17.82
2023-09-14T05:37:56.723Z,17.62
2023-09-14T05:40:25.339Z,17.64
2023-09-14T05:42:55.035Z,17.09
2023-09-14T05:45:24.782Z,17.63
2023-09-14T05:47:53.022Z,17.54
2023-09-14T05:50:21.746Z,17.41
2023-09-14T05:52:50.213Z,17.37
2023-09-14T05:55:19.210Z,17.15
2023-09-14T05:57:49.000Z,17.36
2023-09-14T06:00:20.391Z,16.89
2023-09-14T06:02:49.153Z,17.05
2023-09-14T06:05:25.218Z,17.13
2023-09-14T06:07:55.865Z,16.64
2023-09-14T06:10:24.803Z,17.09
2023-09-14T06:12:53.165Z,16.84
2023-09-14T06:15:23.209Z,16.49
2023-09-14T06:17:51.480Z,17.02
2023-09-14T06:20:20.030Z,16.91
2023-09-14T06:22:48.352Z,16.91
2023-09-14T06:25:17.395Z,16.78
2023-09-14T06:27:46.484Z,16.59
2023-09-14T06:30:15.042Z,16.42
2023-09-14T06:32:44.806Z,15.92
2023-09-14T06:35:13.342Z,15.81
2023-09-14T06:37:42.109Z,15.97
2023-09-14T06:40:13.532Z,15.94
2023-09-14T06:42:43.088Z,14.01
2023-09-14T06:45:13.064Z,15.50
2023-09-14T06:47:41.548Z,15.49
2023-09-14T06:50:13.757Z,15.30
2023-09-14T06:52:42.354Z,15.40
2023-09-14T06:55:11.735Z,15.33
2023-09-14T06:57:40.098Z,15.39
2023-09-14T07:00:15.326Z,15.11
2023-09-14T07:02:43.866Z,15.20
2023-09-14T07:05:14.358Z,14.37
2023-09-14T07:07:43.384Z,14.95
2023-09-14T07:10:12.760Z,15.23
2023-09-14T07:12:41.216Z,14.98
2023-09-14T07:15:11.076Z,14.02
2023-09-14T07:17:39.507Z,14.15
2023-09-14T07:20:09.674Z,13.53
2023-09-14T07:22:39.656Z,12.88
2023-09-14T07:25:10.040Z,13.25
2023-09-14T07:27:38.614Z,13.15
2023-09-14T07:30:08.636Z,13.03
2023-09-14T07:32:37.037Z,13.18
2023-09-14T07:35:06.560Z,13.20
2023-09-14T07:37:34.846Z,13.41
2023-09-14T07:40:05.902Z,12.79
2023-09-14T07:42:34.684Z,12.73
2023-09-14T07:45:03.250Z,12.85
2023-09-14T07:47:31.747Z,12.76
2023-09-14T07:50:00.447Z,12.33
2023-09-14T07:52:29.492Z,12.66
2023-09-14T07:54:58.359Z,12.63
2023-09-14T07:57:28.143Z,12.07
2023-09-14T07:59:56.612Z,11.98
2023-09-14T08:02:25.399Z,12.13
2023-09-14T08:04:54.244Z,11.79
2023-09-14T08:07:22.847Z,11.51
2023-09-14T08:09:51.290Z,11.13
2023-09-14T08:12:19.656Z,11.27
2023-09-14T08:14:49.427Z,10.99
2023-09-14T08:17:17.974Z,11.23
2023-09-14T08:19:46.765Z,11.56
2023-09-14T08:22:16.388Z,11.90
2023-09-14T08:24:45.157Z,11.67
2023-09-14T08:27:13.685Z,11.10
2023-09-14T08:29:44.322Z,11.22
2023-09-14T08:32:14.186Z,11.00
2023-09-14T08:34:42.838Z,11.10
2023-09-14T08:37:12.342Z,10.86
2023-09-14T08:39:41.018Z,11.17
2023-09-14T08:42:09.332Z,11.58
2023-09-14T08:44:37.962Z,11.94
2023-09-14T08:47:06.690Z,11.46
2023-09-14T08:50:01.508Z,11.43
2023-09-14T08:52:30.169Z,11.77
2023-09-14T08:54:58.962Z,11.62
2023-09-14T08:57:28.033Z,11.69
2023-09-14T08:59:58.247Z,11.27
2023-09-14T09:02:27.540Z,11.53
2023-09-14T09:04:55.898Z,12.12
2023-09-14T09:07:26.121Z,11.54
2023-09-14T09:09:54.361Z,12.08
2023-09-14T09:12:22.915Z,12.40
2023-09-14T09:14:51.936Z,11.84
2023-09-14T09:17:20.790Z,12.20
2023-09-14T09:19:49.917Z,12.08
2023-09-14T09:22:19.978Z,12.17
2023-09-14T09:24:49.967Z,11.46
2023-09-14T09:27:28.051Z,11.01
2023-09-14T09:29:59.938Z,10.50
2023-09-14T09:32:28.980Z,9.62
2023-09-14T09:34:57.395Z,8.30
2023-09-14T09:37:26.756Z,7.99
2023-09-14T09:39:56.808Z,7.63
2023-09-14T09:42:25.953Z,8.08
2023-09-14T09:45:00.248Z,8.18
2023-09-14T09:47:29.763Z,9.04
2023-09-14T09:49:58.880Z,8.34
2023-09-14T09:52:28.855Z,6.62
2023-09-14T09:54:58.839Z,5.66
2023-09-14T09:57:30.515Z,4.43
2023-09-14T09:59:59.117Z,4.63
2023-09-14T10:02:32.590Z,5.91
2023-09-14T10:05:01.260Z,6.91
2023-09-14T10:07:29.947Z,6.67
2023-09-14T10:09:59.956Z,6.38
2023-09-14T10:12:33.118Z,6.85
2023-09-14T10:15:01.756Z,7.78
2023-09-14T10:17:32.343Z,7.80
2023-09-14T10:20:01.351Z,8.01
2023-09-14T10:22:30.708Z,7.76
2023-09-14T10:25:01.040Z,7.19
2023-09-14T10:27:29.742Z,5.88
2023-09-14T10:29:58.169Z,7.43
2023-09-14T10:32:27.835Z,6.39
2023-09-14T10:35:06.359Z,6.02
2023-09-14T10:37:36.531Z,6.48
2023-09-14T10:40:09.634Z,6.37
2023-09-14T10:42:38.183Z,7.16
2023-09-14T10:45:07.847Z,7.01
2023-09-14T10:47:38.508Z,7.32
2023-09-14T10:50:08.501Z,7.29
2023-09-14T10:52:38.689Z,7.79
2023-09-14T10:55:11.086Z,7.43
2023-09-14T10:57:41.655Z,7.54
2023-09-14T11:00:25.294Z,6.20
2023-09-14T11:03:17.976Z,6.69
2023-09-14T11:05:50.086Z,7.26
2023-09-14T11:08:21.451Z,6.98
2023-09-14T11:11:02.051Z,7.39
2023-09-14T11:13:37.195Z,8.27
2023-09-14T11:16:09.445Z,8.87
2023-09-14T11:18:54.665Z,8.88
2023-09-14T11:21:45.801Z,9.21
2023-09-14T11:24:15.169Z,10.01
2023-09-14T11:26:50.135Z,9.37
2023-09-14T11:29:24.397Z,9.76
2023-09-14T11:32:06.426Z,9.34
2023-09-14T11:34:42.946Z,10.12
2023-09-14T11:37:18.629Z,10.29
2023-09-14T11:39:58.956Z,10.09
2023-09-14T11:42:34.633Z,10.29
2023-09-14T11:45:12.665Z,10.86
2023-09-14T11:47:46.506Z,11.57
2023-09-14T11:50:16.573Z,11.03
2023-09-14T11:52:46.174Z,10.97
2023-09-14T11:55:15.957Z,10.86
2023-09-14T11:57:45.904Z,11.40
2023-09-14T12:00:15.471Z,11.29
2023-09-14T12:02:43.894Z,11.56
2023-09-14T12:05:13.043Z,11.40
2023-09-14T12:07:41.489Z,11.76
2023-09-14T12:10:20.430Z,11.03
2023-09-14T12:12:50.376Z,11.24
2023-09-14T12:15:20.016Z,12.15
2023-09-14T12:17:52.316Z,11.84
2023-09-14T12:20:21.573Z,12.65
2023-09-14T12:22:50.046Z,12.71
2023-09-14T12:25:19.684Z,12.64
2023-09-14T12:27:49.630Z,12.73
2023-09-14T12:30:18.448Z,13.14
2023-09-14T12:32:46.943Z,13.17
2023-09-14T12:35:17.606Z,12.70
2023-09-14T12:37:46.027Z,12.19
2023-09-14T12:40:15.007Z,12.33
2023-09-14T12:42:44.425Z,12.03
2023-09-14T12:45:17.149Z,11.67
2023-09-14T12:47:47.963Z,11.59
2023-09-14T12:50:18.138Z,11.87
2023-09-14T12:52:46.777Z,11.80
2023-09-14T12:55:17.345Z,12.04
2023-09-14T12:57:48.826Z,11.55
2023-09-14T13:00:19.404Z,11.52
2023-09-14T13:02:49.555Z,11.52
2023-09-14T13:05:19.858Z,11.71
2023-09-14T13:07:49.662Z,11.58
2023-09-14T13:10:21.193Z,11.52
2023-09-14T13:12:54.635Z,11.41
2023-09-14T13:15:26.132Z,11.17
2023-09-14T13:17:55.999Z,11.58
2023-09-14T13:20:25.572Z,11.81
2023-09-14T13:22:53.918Z,11.61
2023-09-14T13:25:25.331Z,11.54
2023-09-14T13:27:54.275Z,11.64
2023-09-14T13:30:28.577Z,11.36
2023-09-14T13:32:58.209Z,12.17
2023-09-14T13:35:27.501Z,11.83
2023-09-14T13:37:58.213Z,12.11
2023-09-14T13:40:29.466Z,12.54
2023-09-14T13:42:59.630Z,12.47
2023-09-14T13:45:30.573Z,12.05
2023-09-14T13:47:59.021Z,10.89
2023-09-14T13:50:28.002Z,12.28
2023-09-14T13:52:56.240Z,12.38
2023-09-14T13:55:24.793Z,12.13
2023-09-14T13:57:53.183Z,12.19
2023-09-14T14:00:23.623Z,11.88
2023-09-14T14:02:56.545Z,12.09
2023-09-14T14:05:25.390Z,12.51
2023-09-14T14:07:53.741Z,12.31
2023-09-14T14:10:22.293Z,12.40
2023-09-14T14:12:50.880Z,13.03
2023-09-14T14:15:19.606Z,12.98
2023-09-14T14:17:48.184Z,12.87
2023-09-14T14:20:18.374Z,12.79
2023-09-14T14:22:46.528Z,13.05
2023-09-14T14:25:15.300Z,12.83
2023-09-14T14:27:43.954Z,12.68
2023-09-14T14:30:13.957Z,12.62
2023-09-14T14:32:42.653Z,12.14
2023-09-14T14:35:12.880Z,12.63
2023-09-14T14:37:42.571Z,12.41
2023-09-14T14:40:28.685Z,11.80
2023-09-14T14:43:02.491Z,12.11
2023-09-14T14:45:31.249Z,12.12
2023-09-14T14:48:00.093Z,11.85
2023-09-14T14:50:28.793Z,11.67
2023-09-14T14:52:58.591Z,11.67
2023-09-14T14:55:27.227Z,11.78
2023-09-14T14:57:55.874Z,11.87
2023-09-14T15:00:24.671Z,12.09
2023-09-14T15:02:53.066Z,11.45
2023-09-14T15:05:21.768Z,11.71
2023-09-14T15:07:50.115Z,11.06
2023-09-14T15:10:20.388Z,11.31
2023-09-14T15:12:50.626Z,11.75
2023-09-14T15:15:19.344Z,12.28
2023-09-14T15:17:47.898Z,11.68
2023-09-14T15:20:16.659Z,12.02
2023-09-14T15:22:45.510Z,12.24
2023-09-14T15:25:14.469Z,12.52
2023-09-14T15:27:44.186Z,11.82
2023-09-14T15:30:13.746Z,11.97
2023-09-14T15:32:44.468Z,11.98
2023-09-14T15:35:14.491Z,12.13
2023-09-14T15:37:43.083Z,12.66
2023-09-14T15:40:15.130Z,12.42
2023-09-14T15:42:46.259Z,12.34
2023-09-14T15:45:15.123Z,13.01
2023-09-14T15:47:45.624Z,12.91
2023-09-14T15:50:14.406Z,12.79
2023-09-14T15:52:42.962Z,12.82
2023-09-14T15:55:29.017Z,13.12
2023-09-14T15:58:01.743Z,12.48
2023-09-14T16:00:30.356Z,13.02
2023-09-14T16:02:58.917Z,12.99
2023-09-14T16:05:28.305Z,12.96
2023-09-14T16:08:07.237Z,12.33
2023-09-14T16:10:36.219Z,12.92
2023-09-14T16:13:06.415Z,13.08
2023-09-14T16:15:35.123Z,13.51
2023-09-14T16:18:03.607Z,13.64
2023-09-14T16:20:32.550Z,13.54
2023-09-14T16:23:01.158Z,13.69
2023-09-14T16:25:29.843Z,14.05
2023-09-14T16:27:58.192Z,14.11
2023-09-14T16:30:28.513Z,13.89
2023-09-14T16:32:57.049Z,14.28
2023-09-14T16:35:25.655Z,14.17
2023-09-14T16:37:54.008Z,14.05
2023-09-14T16:40:22.596Z,14.01
2023-09-14T16:42:51.106Z,14.16
2023-09-14T16:45:20.058Z,14.17
2023-09-14T16:47:50.278Z,13.82
2023-09-14T16:50:18.913Z,14.27
2023-09-14T16:52:47.368Z,14.18
2023-09-14T16:55:17.633Z,14.17
2023-09-14T16:57:48.232Z,14.22
2023-09-14T17:00:17.747Z,14.44
2023-09-14T17:02:46.832Z,14.03
2023-09-14T17:05:18.335Z,13.89
2023-09-14T17:07:48.909Z,14.25
2023-09-14T17:10:21.212Z,14.12
2023-09-14T17:12:52.667Z,14.35
2023-09-14T17:15:21.150Z,14.43
2023-09-14T17:17:49.569Z,14.51
2023-09-14T17:20:22.510Z,14.27
2023-09-14T17:22:50.953Z,14.80
2023-09-14T17:25:19.650Z,14.99
2023-09-14T17:27:48.148Z,15.35
2023-09-14T17:30:16.965Z,15.06
2023-09-14T17:32:46.397Z,15.22
2023-09-14T17:35:15.861Z,15.16
2023-09-14T17:37:46.058Z,14.66
2023-09-14T17:40:14.746Z,14.83
2023-09-14T17:42:43.050Z,14.71
2023-09-14T17:45:12.530Z,14.62
2023-09-14T17:47:42.682Z,14.73
2023-09-14T17:50:12.543Z,14.70
2023-09-14T17:52:41.669Z,14.69
2023-09-14T17:55:12.256Z,14.52
2023-09-14T17:57:41.621Z,14.82
2023-09-14T18:00:14.694Z,14.85
2023-09-14T18:02:43.493Z,15.34
2023-09-14T18:05:12.327Z,15.25
2023-09-14T18:07:40.904Z,15.16
2023-09-14T18:10:13.863Z,14.42
2023-09-14T18:12:43.043Z,14.67
2023-09-14T18:15:12.524Z,14.87
2023-09-14T18:17:41.052Z,15.01
2023-09-14T18:20:11.909Z,14.80
2023-09-14T18:22:42.428Z,14.82
2023-09-14T18:25:14.149Z,14.21
2023-09-14T18:27:42.816Z,14.87
2023-09-14T18:30:13.982Z,14.64
2023-09-14T18:32:53.134Z,13.51
2023-09-14T18:35:22.645Z,14.55
2023-09-14T18:37:52.395Z,14.13
2023-09-14T18:40:23.635Z,13.83
2023-09-14T18:42:56.309Z,14.39
2023-09-14T18:45:25.662Z,14.43
2023-09-14T18:47:55.117Z,14.36
2023-09-14T18:50:23.816Z,14.49
2023-09-14T18:52:52.698Z,14.25
2023-09-14T18:55:24.600Z,14.10
2023-09-14T18:57:53.849Z,14.34
2023-09-14T19:00:22.777Z,14.27
2023-09-14T19:02:51.357Z,14.23
2023-09-14T19:05:20.119Z,14.29
2023-09-14T19:07:48.524Z,14.28
2023-09-14T19:10:17.260Z,14.23
2023-09-14T19:12:47.201Z,13.97
2023-09-14T19:15:17.569Z,13.72
2023-09-14T19:17:46.478Z,14.31
2023-09-14T19:20:16.416Z,14.31
2023-09-14T19:22:44.626Z,14.71
2023-09-14T19:25:13.261Z,14.75
2023-09-14T19:27:41.743Z,14.70
2023-09-14T19:30:12.691Z,14.24
2023-09-14T19:32:41.830Z,14.68
2023-09-14T19:35:11.615Z,14.52
2023-09-14T19:37:40.352Z,14.48
2023-09-14T19:40:10.211Z,14.56
2023-09-14T19:42:39.487Z,14.41
2023-09-14T19:45:08.946Z,14.29
2023-09-14T19:47:41.572Z,14.05
2023-09-14T19:50:11.010Z,14.34
2023-09-14T19:52:39.362Z,14.63
2023-09-14T19:55:08.682Z,14.77
2023-09-14T19:57:37.168Z,14.75
2023-09-14T20:00:07.154Z,14.94
2023-09-14T20:02:36.113Z,15.13
2023-09-14T20:05:07.742Z,14.89
2023-09-14T20:07:37.739Z,15.25
2023-09-14T20:10:07.898Z,15.42
2023-09-14T20:12:36.436Z,15.39
2023-09-14T20:15:05.736Z,15.28
2023-09-14T20:17:35.180Z,15.38
2023-09-14T20:20:04.616Z,15.54
2023-09-14T20:22:34.757Z,15.04
2023-09-14T20:25:03.939Z,15.44
2023-09-14T20:27:33.079Z,15.60
2023-09-14T20:30:01.855Z,15.53
2023-09-14T20:32:32.903Z,15.76
2023-09-14T20:35:01.703Z,15.76
2023-09-14T20:37:30.138Z,15.50
2023-09-14T20:40:08.982Z,15.14
2023-09-14T20:42:37.366Z,15.79
2023-09-14T20:45:07.846Z,15.54
2023-09-14T20:47:36.204Z,15.61
2023-09-14T20:50:06.139Z,15.64
2023-09-14T20:52:34.779Z,15.66
2023-09-14T20:55:05.792Z,15.42
2023-09-14T20:57:34.302Z,15.83
2023-09-14T21:00:03.184Z,15.63
2023-09-14T21:02:32.389Z,15.84
2023-09-14T21:05:01.788Z,15.56
2023-09-14T21:07:30.062Z,16.01
2023-09-14T21:09:58.899Z,15.64
2023-09-14T21:12:28.748Z,15.27
2023-09-14T21:14:57.557Z,15.64
2023-09-14T21:17:26.699Z,15.82
2023-09-14T21:19:56.885Z,15.78
2023-09-14T21:22:25.194Z,15.61
2023-09-14T21:24:54.387Z,15.71
2023-09-14T21:27:22.655Z,15.72
2023-09-14T21:29:52.680Z,15.42
2023-09-14T21:32:21.113Z,15.93
2023-09-14T21:34:49.820Z,16.01
2023-09-14T21:37:18.617Z,16.04
2023-09-14T21:39:47.463Z,16.16
2023-09-14T21:42:15.977Z,16.39
2023-09-14T21:44:44.633Z,16.45
2023-09-14T21:47:14.326Z,15.95
2023-09-14T21:49:44.056Z,16.21
2023-09-14T21:52:13.086Z,16.32
2023-09-14T21:54:42.144Z,16.24
2023-09-14T21:57:10.714Z,16.73
2023-09-14T21:59:42.847Z,16.11
2023-09-14T22:02:11.842Z,16.30
2023-09-14T22:04:41.862Z,16.13
2023-09-14T22:07:10.762Z,16.09
2023-09-14T22:09:41.821Z,16.38
2023-09-14T22:12:10.170Z,16.41
2023-09-14T22:14:38.672Z,16.58
2023-09-14T22:17:09.549Z,16.48
2023-09-14T22:19:37.856Z,14.89
2023-09-14T22:22:08.012Z,15.87
2023-09-14T22:24:36.797Z,16.44
2023-09-14T22:27:06.197Z,16.18
2023-09-14T22:29:36.163Z,14.90
2023-09-14T22:32:05.081Z,16.40
2023-09-14T22:34:33.640Z,16.63
2023-09-14T22:37:02.100Z,16.39
2023-09-14T22:39:32.235Z,16.45
2023-09-14T22:42:00.500Z,16.45
2023-09-14T22:44:29.018Z,16.60
2023-09-14T22:46:57.343Z,16.64
2023-09-14T22:49:26.134Z,16.71
2023-09-14T22:51:54.556Z,16.67
2023-09-14T22:54:23.488Z,16.84
2023-09-14T22:56:53.160Z,16.34
2023-09-14T22:59:21.615Z,17.05
2023-09-14T23:01:50.172Z,17.31
2023-09-14T23:04:18.991Z,16.90
2023-09-14T23:06:47.449Z,17.29
2023-09-14T23:09:16.384Z,17.45
2023-09-14T23:11:44.950Z,17.08
2023-09-14T23:14:16.290Z,16.72
2023-09-14T23:16:46.236Z,17.17
2023-09-14T23:19:15.816Z,17.46
2023-09-14T23:21:44.155Z,17.27
2023-09-14T23:24:12.917Z,17.70
2023-09-14T23:26:42.795Z,17.51
2023-09-14T23:29:12.963Z,17.21
2023-09-14T23:31:44.019Z,17.16
2023-09-14T23:34:13.539Z,16.03
2023-09-14T23:36:43.281Z,17.74
2023-09-14T23:39:13.659Z,17.54
2023-09-14T23:41:42.608Z,17.70
2023-09-14T23:44:12.967Z,17.84
2023-09-14T23:46:43.666Z,17.47
2023-09-14T23:49:15.270Z,17.20
2023-09-14T23:51:44.930Z,17.92
2023-09-14T23:54:14.463Z,17.80
2023-09-14T23:56:43.679Z,17.92
2023-09-14T23:59:12.414Z,17.67
